»·PEaware :: WAT380 KOTH-KSEA

WAT380 :: KOTH-KSEA

FLIGHT INFORMATION

Flight Status: Arrived
Operator:
Walker Air Transport
More flights by this operator :: More flights under this callsign
Pilot: Spencer M. (27733)
Aircraft: PILATUS PC-12 EAGLE
(PC12)
More flights by this aircraft type
Origin: KOTH North Bend Mun
United States
Destination: KSEA Seattle-Tacoma Intl
United States
More flights between these airports :: More routes between these airports
Route: OTH7 RARES V287 UBG OLM2
File this flight plan on PilotEdge
Remarks:
Altitude:
(Current/Filed)
15,000ft
Speed:
(Current/Filed)
230kts
Departed: 23-Oct-20 07:03 PM
Arrived: 23-Oct-20 08:18 PM
Distance/Time
Traveled:
255nm/1:15
Distance/Time
To Go:
Arrived

Flight Plot

Page will automatically refresh every two minutes.

Flight plan parsing failed; only flown route is shown


Map Options




Map Legend


Flown Route
Filed Route
Departure Airport
Arrival Airport
Navaid (VOR, NDB)
Fix

Horizontal Profiles

Position Reports

Time Latitude Longitude Heading Altitude Ground
Speed
23-Oct-20 18:45 43.417385 -124.246533 330 21ft 0kts
23-Oct-20 18:46 43.417385 -124.246533 330 21ft 0kts
23-Oct-20 18:47 43.417385 -124.246533 330 21ft 0kts
23-Oct-20 18:48 43.417385 -124.246533 330 21ft 0kts
23-Oct-20 18:49 43.417385 -124.246533 330 21ft 0kts
23-Oct-20 18:50 43.417385 -124.246533 330 21ft 0kts
23-Oct-20 18:51 43.417385 -124.246533 330 21ft 0kts
23-Oct-20 18:52 43.417385 -124.246533 330 21ft 0kts
23-Oct-20 18:53 43.417385 -124.246533 330 21ft 0kts
23-Oct-20 18:54 43.417385 -124.246533 330 21ft 0kts
23-Oct-20 18:55 43.417401 -124.246545 330 21ft 1kts
23-Oct-20 18:56 43.418927 -124.246938 5 21ft 7kts
23-Oct-20 18:57 43.419043 -124.246875 38 21ft 0kts
23-Oct-20 18:58 43.419043 -124.246875 38 21ft 0kts
23-Oct-20 18:59 43.419043 -124.246875 38 21ft 0kts
23-Oct-20 19:00 43.419043 -124.246875 38 21ft 0kts
23-Oct-20 19:01 43.419121 -124.245741 146 21ft 1kts
23-Oct-20 19:02 43.397980 -124.230688 182 688ft 114kts
23-Oct-20 19:03 43.394435 -124.274154 291 2279ft 152kts
23-Oct-20 19:04 43.412059 -124.330092 278 3823ft 159kts
23-Oct-20 19:05 43.442080 -124.327092 82 5319ft 193kts
23-Oct-20 19:06 43.430326 -124.252933 102 6618ft 203kts
23-Oct-20 19:07 43.423438 -124.176928 60 7935ft 196kts
23-Oct-20 19:08 43.465519 -124.138658 14 9225ft 188kts
23-Oct-20 19:09 43.514976 -124.109947 14 10429ft 196kts
23-Oct-20 19:10 43.565344 -124.079980 13 11625ft 198kts
23-Oct-20 19:11 43.615857 -124.049842 13 12820ft 198kts
23-Oct-20 19:12 43.666109 -124.019822 12 14012ft 197kts
23-Oct-20 19:13 43.716433 -123.989790 12 14978ft 206kts
23-Oct-20 19:14 43.773762 -123.955525 14 14980ft 236kts
23-Oct-20 19:15 43.834916 -123.918572 14 14995ft 242kts
23-Oct-20 19:16 43.897101 -123.881259 14 15000ft 245kts
23-Oct-20 19:17 43.959540 -123.843687 14 15005ft 246kts
23-Oct-20 19:18 44.022374 -123.805667 14 15007ft 246kts
23-Oct-20 19:19 44.085066 -123.767643 14 15006ft 246kts
23-Oct-20 19:20 44.148045 -123.729365 14 15013ft 248kts
23-Oct-20 19:21 44.211341 -123.690791 14 15012ft 249kts
23-Oct-20 19:22 44.274640 -123.652112 14 15012ft 249kts
23-Oct-20 19:23 44.337711 -123.613482 14 15008ft 248kts
23-Oct-20 19:24 44.401011 -123.574666 14 14981ft 249kts
23-Oct-20 19:25 44.464185 -123.535795 14 14968ft 249kts
23-Oct-20 19:26 44.527647 -123.496657 14 14957ft 249kts
23-Oct-20 19:27 44.590851 -123.457581 14 14957ft 249kts
23-Oct-20 19:28 44.654128 -123.418383 13 14957ft 249kts
23-Oct-20 19:29 44.717647 -123.378931 13 14956ft 249kts
23-Oct-20 19:30 44.780873 -123.339558 14 14992ft 248kts
23-Oct-20 19:31 44.843641 -123.300409 13 14995ft 247kts
23-Oct-20 19:32 44.906514 -123.261100 13 14995ft 248kts
23-Oct-20 19:33 44.969650 -123.221507 13 14994ft 248kts
23-Oct-20 19:34 45.032493 -123.182005 13 14980ft 248kts
23-Oct-20 19:36 45.095659 -123.142197 13 14987ft 248kts
23-Oct-20 19:37 45.158600 -123.102464 13 14991ft 250kts
23-Oct-20 19:38 45.222198 -123.062173 13 14997ft 250kts
23-Oct-20 19:39 45.285733 -123.021832 13 14994ft 251kts
23-Oct-20 19:40 45.349441 -122.982380 5 14992ft 244kts
23-Oct-20 19:41 45.414456 -122.975350 351 14989ft 233kts
23-Oct-20 19:42 45.479396 -122.972770 352 14983ft 234kts
23-Oct-20 19:43 45.544598 -122.969774 352 14972ft 234kts
23-Oct-20 19:44 45.609719 -122.966769 352 14962ft 233kts
23-Oct-20 19:45 45.674276 -122.963786 352 14998ft 232kts
23-Oct-20 19:46 45.738556 -122.960815 352 14998ft 232kts
23-Oct-20 19:47 45.803153 -122.957814 352 14997ft 232kts
23-Oct-20 19:48 45.867410 -122.954817 352 14995ft 232kts
23-Oct-20 19:49 45.931916 -122.951808 352 14998ft 232kts
23-Oct-20 19:50 45.996307 -122.948801 352 14998ft 232kts
23-Oct-20 19:51 46.060303 -122.945791 351 14997ft 231kts
23-Oct-20 19:51 46.113711 -122.943284 351 14998ft 231kts
23-Oct-20 19:53 46.189174 -122.939736 351 14982ft 232kts
23-Oct-20 19:53 46.242857 -122.937133 351 14969ft 230kts
23-Oct-20 19:55 46.317274 -122.933679 352 14970ft 230kts
23-Oct-20 19:55 46.370377 -122.931265 351 14984ft 230kts
23-Oct-20 19:57 46.444908 -122.927663 351 15011ft 230kts
23-Oct-20 19:57 46.498089 -122.925095 351 15011ft 230kts
23-Oct-20 19:58 46.562043 -122.922025 351 15010ft 230kts
23-Oct-20 19:59 46.625903 -122.918966 351 15010ft 230kts
23-Oct-20 20:00 46.689863 -122.915894 351 15009ft 230kts
23-Oct-20 20:02 46.765967 -122.912348 352 14425ft 244kts
23-Oct-20 20:02 46.822852 -122.909353 353 13758ft 248kts
23-Oct-20 20:03 46.892080 -122.901121 17 12936ft 269kts
23-Oct-20 20:04 46.937328 -122.807954 51 11933ft 275kts
23-Oct-20 20:05 46.972345 -122.721200 50 11080ft 227kts
23-Oct-20 20:06 47.003485 -122.644905 50 10279ft 213kts
23-Oct-20 20:07 47.035903 -122.565427 54 8791ft 223kts
23-Oct-20 20:08 47.069824 -122.482225 55 6866ft 222kts
23-Oct-20 20:09 47.102886 -122.400886 55 5997ft 190kts
23-Oct-20 20:10 47.133998 -122.340222 28 5561ft 180kts
23-Oct-20 20:11 47.180933 -122.310134 358 4665ft 172kts
23-Oct-20 20:12 47.231030 -122.309928 358 3982ft 167kts
23-Oct-20 20:13 47.281135 -122.309311 359 3264ft 176kts
23-Oct-20 20:14 47.335537 -122.308875 0 2295ft 179kts
23-Oct-20 20:15 47.387413 -122.308410 359 1231ft 151kts
23-Oct-20 20:16 47.421913 -122.308111 359 734ft 96kts
23-Oct-20 20:17 47.439129 -122.307864 33 437ft 18kts
23-Oct-20 20:18 47.439027 -122.306724 91 437ft 0kts
23-Oct-20 20:19 47.439182 -122.306416 15 437ft 6kts
23-Oct-20 20:20 47.441097 -122.306375 359 437ft 6kts
23-Oct-20 20:21 47.445545 -122.306320 0 437ft 17kts
23-Oct-20 20:22 47.449570 -122.303652 91 437ft 10kts
23-Oct-20 20:23 47.449241 -122.303150 152 437ft 0kts
23-Oct-20 20:24 47.449242 -122.303150 152 437ft 0kts

Navigation Log

Ident Type
Flight plan parsing failed, navigation log unavailable